Clayhole, Kentucky
Current Conditions -  °F | °C
As of 1:53 PM on Friday 28 Nov 2014 (Local Time) from KJKL Reporting Station
Few Clouds Few Clouds  
Wind Chill: 30°   Ceiling: Unl
Heat Index: 35°   Visibility: 10mi
Dew Point: 16°   Wind: 6mph
Humidity: 46%   Direction: 220°SW
Pressure: 30.29"   Gusts: NA
Location:  37.46°N, 83.19°W
Report Text: KJKL 281853Z AUTO 22005KT 10SM FEW065 02/M09 A3029 RMK AO2 SLP267 T00171089
Loading
Personal Weather Stations






























Interactive Weather Map New forecast layout! Learn more

10-Day Weather Forecast

Advertisements
Track Severe Weather on mobile